Clearview City, Kansas
Current Conditions -  °F | °C
As of 5:53 PM on Sunday 25 Jan 2015 (Local Time) from KIXD Reporting Station
Overcast Overcast  
Wind Chill: 28°   Ceiling: 2100
Heat Index: 38°   Visibility: 10mi
Dew Point: 32°   Wind: 20mph
Humidity: 79%   Direction: 340°NNW
Pressure: 30.06"   Gusts: 28mph
Location:  38.95°N, 95°W
Report Text: KIXD 252353Z 34017G24KT 10SM OVC021 03/00 A3006 RMK AO2 SLP184 T00330000 10033 20028 52043
Loading
Personal Weather Stations






























Interactive Weather Map New forecast layout! Learn more

10-Day Weather Forecast

Advertisements
Track Severe Weather on mobile